createdAt,value
2022-10-28T00:01:51.478Z,97049.41
2022-10-28T00:04:17.893Z,97051.88
2022-10-28T00:06:44.299Z,97058.84
2022-10-28T00:09:12.314Z,97057.53
2022-10-28T00:11:38.872Z,97050.59
2022-10-28T00:14:06.204Z,97049.94
2022-10-28T00:16:33.545Z,97045.63
2022-10-28T00:19:00.533Z,97042.34
2022-10-28T00:21:31.043Z,97046.16
2022-10-28T00:23:57.851Z,97047.97
2022-10-28T00:26:25.721Z,97046.31
2022-10-28T00:28:53.567Z,97036.59
2022-10-28T00:31:20.886Z,97035.09
2022-10-28T00:33:47.402Z,97040.56
2022-10-28T00:36:15.559Z,97042.38
2022-10-28T00:38:42.740Z,97037.25
2022-10-28T00:41:09.948Z,97036.78
2022-10-28T00:43:37.467Z,97035.44
2022-10-28T00:46:04.602Z,97027.84
2022-10-28T00:48:31.007Z,97029.19
2022-10-28T00:50:57.885Z,97027.53
2022-10-28T00:53:30.180Z,97027.03
2022-10-28T00:55:57.102Z,97021.13
2022-10-28T00:58:24.910Z,97026.56
2022-10-28T01:00:51.261Z,97022.44
2022-10-28T01:03:17.685Z,97031.22
2022-10-28T01:05:46.448Z,97022.63
2022-10-28T01:08:12.977Z,97023.78
2022-10-28T01:10:47.845Z,97024.94
2022-10-28T01:13:32.635Z,97026.25
2022-10-28T01:16:04.065Z,97026.25
2022-10-28T01:18:39.451Z,97031.53
2022-10-28T01:21:08.948Z,97026.44
2022-10-28T01:23:39.609Z,97027.28
2022-10-28T01:26:14.808Z,97021.16
2022-10-28T01:28:51.442Z,97026.25
2022-10-28T01:31:26.110Z,97023.28
2022-10-28T01:33:54.510Z,97025.59
2022-10-28T01:36:23.974Z,97021.97
2022-10-28T01:39:01.727Z,97019.16
2022-10-28T01:41:28.074Z,97017.69
2022-10-28T01:44:04.447Z,97018.66
2022-10-28T01:46:34.579Z,97018.00
2022-10-28T01:49:21.967Z,97018.00
2022-10-28T01:51:51.064Z,97013.72
2022-10-28T01:54:20.213Z,97009.44
2022-10-28T01:56:48.134Z,97003.16
2022-10-28T01:59:20.641Z,96996.25
2022-10-28T02:01:47.151Z,96994.75
2022-10-28T02:04:13.776Z,96993.91
2022-10-28T02:06:41.206Z,97002.84
2022-10-28T02:09:13.716Z,97001.84
2022-10-28T02:11:49.757Z,96990.47
2022-10-28T02:14:25.277Z,96989.28
2022-10-28T02:16:56.551Z,96980.41
2022-10-28T02:19:32.699Z,96983.66
2022-10-28T02:22:08.173Z,96981.50
2022-10-28T02:24:54.620Z,96983.34
2022-10-28T02:27:24.627Z,96966.84
2022-10-28T02:30:00.082Z,96975.59
2022-10-28T02:32:28.590Z,96976.44
2022-10-28T02:34:56.901Z,96977.09
2022-10-28T02:37:33.352Z,96976.75
2022-10-28T02:40:06.584Z,96972.13
2022-10-28T02:42:42.595Z,96973.09
2022-10-28T02:45:17.630Z,96965.00
2022-10-28T02:47:47.200Z,96964.19
2022-10-28T02:50:16.482Z,96965.53
2022-10-28T02:52:44.438Z,96965.53
2022-10-28T02:55:10.934Z,96968.47
2022-10-28T02:57:42.364Z,96972.78
2022-10-28T03:00:10.532Z,96965.00
2022-10-28T03:02:37.016Z,96959.91
2022-10-28T03:05:05.314Z,96962.53
2022-10-28T03:07:31.703Z,96961.91
2022-10-28T03:09:58.101Z,96962.06
2022-10-28T03:12:24.463Z,96969.34
2022-10-28T03:14:50.885Z,96970.50
2022-10-28T03:17:17.278Z,96969.19
2022-10-28T03:19:43.632Z,96962.25
2022-10-28T03:22:10.126Z,96967.06
2022-10-28T03:24:36.504Z,96965.59
2022-10-28T03:27:02.959Z,96971.66
2022-10-28T03:29:29.350Z,96960.31
2022-10-28T03:31:55.707Z,96973.81
2022-10-28T03:34:22.112Z,96969.06
2022-10-28T03:36:48.510Z,96967.44
2022-10-28T03:39:15.009Z,96961.81
2022-10-28T03:41:41.601Z,96955.06
2022-10-28T03:44:08.009Z,96957.19
2022-10-28T03:46:36.007Z,96950.28
2022-10-28T03:49:02.704Z,96944.34
2022-10-28T03:51:29.082Z,96945.31
2022-10-28T03:53:55.448Z,96954.25
2022-10-28T03:56:21.850Z,96946.31
2022-10-28T03:58:48.719Z,96953.75
2022-10-28T04:01:15.188Z,96948.47
2022-10-28T04:03:41.632Z,96953.75
2022-10-28T04:06:09.992Z,96946.31
2022-10-28T04:08:36.720Z,96946.16
2022-10-28T04:11:03.200Z,96947.81
2022-10-28T04:13:29.566Z,96945.19
2022-10-28T04:15:56.634Z,96945.84
2022-10-28T04:18:23.057Z,96945.38
2022-10-28T04:20:49.426Z,96949.34
2022-10-28T04:23:16.996Z,96947.97
2022-10-28T04:25:43.379Z,96950.28
2022-10-28T04:28:09.831Z,96951.28
2022-10-28T04:30:36.219Z,96947.00
2022-10-28T04:33:02.674Z,96953.09
2022-10-28T04:35:29.052Z,96946.69
2022-10-28T04:37:55.751Z,96953.47
2022-10-28T04:40:22.354Z,96948.19
2022-10-28T04:42:48.747Z,96942.75
2022-10-28T04:45:15.732Z,96941.41
2022-10-28T04:47:42.095Z,96940.91
2022-10-28T04:50:08.844Z,96935.47
2022-10-28T04:52:35.218Z,96935.66
2022-10-28T04:55:01.606Z,96930.03
2022-10-28T04:57:28.030Z,96934.28
2022-10-28T04:59:54.418Z,96933.31
2022-10-28T05:02:22.251Z,96928.69
2022-10-28T05:04:48.695Z,96930.34
2022-10-28T05:07:17.569Z,96925.72
2022-10-28T05:09:46.303Z,96921.25
2022-10-28T05:12:12.659Z,96933.66
2022-10-28T05:14:39.044Z,96928.53
2022-10-28T05:17:05.498Z,96932.50
2022-10-28T05:19:31.869Z,96930.38
2022-10-28T05:21:58.250Z,96929.03
2022-10-28T05:24:24.615Z,96929.38
2022-10-28T05:26:50.971Z,96934.00
2022-10-28T05:29:19.545Z,96935.31
2022-10-28T05:31:46.270Z,96934.50
2022-10-28T05:34:12.774Z,96930.69
2022-10-28T05:36:39.130Z,96926.41
2022-10-28T05:39:05.590Z,96933.34
2022-10-28T05:41:35.138Z,96922.94
2022-10-28T05:44:04.226Z,96929.41
2022-10-28T05:46:30.697Z,96921.47
2022-10-28T05:48:57.261Z,96931.53
2022-10-28T05:51:23.636Z,96924.13
2022-10-28T05:53:51.251Z,96929.09
2022-10-28T05:56:18.215Z,96935.66
2022-10-28T05:58:44.593Z,96945.41
2022-10-28T06:01:11.155Z,96935.00
2022-10-28T06:03:37.632Z,96938.63
2022-10-28T06:06:04.053Z,96937.81
2022-10-28T06:08:30.774Z,96938.31
2022-10-28T06:10:55.622Z,96935.66
2022-10-28T06:13:22.250Z,96933.84
2022-10-28T06:15:52.598Z,96929.03
2022-10-28T06:18:19.278Z,96935.66
2022-10-28T06:20:53.090Z,96939.28
2022-10-28T06:23:19.659Z,96939.94
2022-10-28T06:25:46.108Z,96941.59
2022-10-28T06:28:12.611Z,96933.00
2022-10-28T06:30:39.047Z,96943.88
2022-10-28T06:33:05.440Z,96950.47
2022-10-28T06:35:31.873Z,96942.91
2022-10-28T06:37:58.288Z,96953.28
2022-10-28T06:40:24.962Z,96956.56
2022-10-28T06:42:57.320Z,96956.72
2022-10-28T06:45:23.858Z,96965.38
2022-10-28T06:47:55.001Z,96969.31
2022-10-28T06:50:21.365Z,96979.34
2022-10-28T06:52:47.759Z,96971.78
2022-10-28T06:55:14.168Z,96975.09
2022-10-28T06:57:40.594Z,96982.72
2022-10-28T07:00:07.331Z,96987.19
2022-10-28T07:02:33.757Z,96992.31
2022-10-28T07:05:00.305Z,96991.13
2022-10-28T07:07:26.680Z,96981.75
2022-10-28T07:09:53.045Z,96981.09
2022-10-28T07:12:19.428Z,96990.28
2022-10-28T07:14:45.899Z,96972.53
2022-10-28T07:17:12.263Z,96973.53
2022-10-28T07:19:38.637Z,96978.44
2022-10-28T07:22:05.046Z,96971.50
2022-10-28T07:24:31.450Z,96971.50
2022-10-28T07:26:57.998Z,96961.19
2022-10-28T07:29:24.453Z,96961.69
2022-10-28T07:31:53.673Z,96940.78
2022-10-28T07:34:26.020Z,96941.44
2022-10-28T07:36:54.378Z,96935.50
2022-10-28T07:39:20.932Z,96942.06
2022-10-28T07:41:47.615Z,96946.84
2022-10-28T07:44:14.712Z,96947.00
2022-10-28T07:46:41.386Z,96952.09
2022-10-28T07:49:08.176Z,96960.34
2022-10-28T07:51:34.536Z,96957.72
2022-10-28T07:54:00.937Z,96945.53
2022-10-28T07:56:27.302Z,96942.09
2022-10-28T07:58:53.666Z,96941.94
2022-10-28T08:01:21.948Z,96946.19
2022-10-28T08:03:48.570Z,96942.75
2022-10-28T08:06:17.496Z,96932.22
2022-10-28T08:08:44.780Z,96925.13
2022-10-28T08:11:24.523Z,96931.56
2022-10-28T08:13:51.613Z,96931.06
2022-10-28T08:16:18.087Z,96929.72
2022-10-28T08:18:45.864Z,96929.25
2022-10-28T08:21:12.732Z,96937.97
2022-10-28T08:23:39.529Z,96939.13
2022-10-28T08:26:05.986Z,96939.13
2022-10-28T08:28:32.414Z,96928.41
2022-10-28T08:31:10.439Z,96935.16
2022-10-28T08:33:38.194Z,96943.25
2022-10-28T08:36:05.174Z,96944.53
2022-10-28T08:38:31.620Z,96950.81
2022-10-28T08:40:57.974Z,96954.75
2022-10-28T08:43:40.275Z,96953.94
2022-10-28T08:46:19.989Z,96959.53
2022-10-28T08:48:46.345Z,96954.06
2022-10-28T08:51:21.568Z,96945.81
2022-10-28T08:53:51.778Z,96947.25
2022-10-28T08:56:38.406Z,96949.72
2022-10-28T08:59:06.355Z,96941.75
2022-10-28T09:01:32.883Z,96935.47
2022-10-28T09:04:05.357Z,96931.94
2022-10-28T09:06:31.810Z,96932.91
2022-10-28T09:08:59.070Z,96937.38
2022-10-28T09:11:48.505Z,96933.06
2022-10-28T09:14:24.375Z,96934.16
2022-10-28T09:17:07.225Z,96935.28
2022-10-28T09:19:43.696Z,96932.59
2022-10-28T09:22:19.948Z,96929.28
2022-10-28T09:24:47.463Z,96929.38
2022-10-28T09:27:32.657Z,96931.16
2022-10-28T09:30:06.858Z,96921.50
2022-10-28T09:32:39.557Z,96918.00
2022-10-28T09:35:08.790Z,96925.84
2022-10-28T09:37:43.212Z,96924.34
2022-10-28T09:40:09.567Z,96918.31
2022-10-28T09:45:14.049Z,96911.41
2022-10-28T09:47:46.759Z,96914.19
2022-10-28T09:50:15.614Z,96919.41
2022-10-28T09:52:52.899Z,96908.75
2022-10-28T09:55:20.583Z,96898.72
2022-10-28T09:57:46.989Z,96902.09
2022-10-28T10:00:14.123Z,96902.84
2022-10-28T10:02:40.707Z,96901.75
2022-10-28T10:05:15.987Z,96901.28
2022-10-28T10:07:46.044Z,96901.81
2022-10-28T10:10:27.782Z,96896.91
2022-10-28T10:12:57.358Z,96901.72
2022-10-28T10:15:38.192Z,96897.16
2022-10-28T10:18:06.146Z,96901.97
2022-10-28T10:20:52.320Z,96897.19
2022-10-28T10:23:29.317Z,96888.09
2022-10-28T10:26:00.666Z,96890.81
2022-10-28T10:28:28.195Z,96888.69
2022-10-28T10:30:56.277Z,96889.34
2022-10-28T10:33:41.140Z,96892.69
2022-10-28T10:36:10.260Z,96899.72
2022-10-28T10:38:37.574Z,96900.63
2022-10-28T10:41:04.409Z,96897.75
2022-10-28T10:43:34.649Z,96892.84
2022-10-28T10:46:01.067Z,96905.09
2022-10-28T10:48:32.403Z,96894.03
2022-10-28T10:51:04.347Z,96892.91
2022-10-28T10:53:31.888Z,96891.91
2022-10-28T10:56:01.268Z,96892.19
2022-10-28T10:58:29.193Z,96889.34
2022-10-28T11:00:57.453Z,96885.63
2022-10-28T11:03:36.273Z,96888.47
2022-10-28T11:06:23.541Z,96886.50
2022-10-28T11:08:54.856Z,96899.38
2022-10-28T11:11:22.152Z,96889.81
2022-10-28T11:14:01.669Z,96893.13
2022-10-28T11:16:28.062Z,96889.03
2022-10-28T11:18:54.444Z,96879.69
2022-10-28T11:21:43.109Z,96879.28
2022-10-28T11:24:12.454Z,96869.06
2022-10-28T11:26:43.522Z,96868.28
2022-10-28T11:29:16.969Z,96870.97
2022-10-28T11:32:01.838Z,96863.09
2022-10-28T11:34:40.001Z,96870.28
2022-10-28T11:37:24.970Z,96869.34
2022-10-28T11:40:06.085Z,96869.75
2022-10-28T11:42:38.309Z,96862.38
2022-10-28T11:45:13.758Z,96862.38
2022-10-28T11:47:48.428Z,96864.69
2022-10-28T11:50:33.428Z,96863.63
2022-10-28T11:53:06.128Z,96857.03
2022-10-28T11:55:35.481Z,96854.78
2022-10-28T11:58:08.586Z,96858.06
2022-10-28T12:00:54.740Z,96857.88
2022-10-28T12:03:27.174Z,96854.38
2022-10-28T12:06:07.378Z,96855.59
2022-10-28T12:08:33.740Z,96867.00
2022-10-28T12:11:06.124Z,96864.00
2022-10-28T12:13:38.449Z,96862.16
2022-10-28T12:16:04.866Z,96873.25
2022-10-28T12:18:31.205Z,96868.97
2022-10-28T12:21:02.359Z,96867.53
2022-10-28T12:23:31.416Z,96864.44
2022-10-28T12:25:58.983Z,96871.31
2022-10-28T12:28:28.224Z,96862.00
2022-10-28T12:30:56.279Z,96858.91
2022-10-28T12:33:28.692Z,96854.00
2022-10-28T12:36:13.627Z,96861.09
2022-10-28T12:38:42.863Z,96858.63
2022-10-28T12:41:13.659Z,96850.72
2022-10-28T12:43:48.908Z,96843.38
2022-10-28T12:46:24.360Z,96847.03
2022-10-28T12:48:54.160Z,96845.16
2022-10-28T12:51:27.945Z,96849.88
2022-10-28T12:53:57.132Z,96845.63
2022-10-28T12:56:30.642Z,96839.72
2022-10-28T13:01:36.401Z,96837.78
2022-10-28T13:04:03.012Z,96830.88
2022-10-28T13:06:47.738Z,96836.59
2022-10-28T13:09:36.308Z,96833.53
2022-10-28T13:12:08.400Z,96829.47
2022-10-28T13:14:58.486Z,96829.28
2022-10-28T13:17:34.735Z,96837.03
2022-10-28T13:20:01.074Z,96831.31
2022-10-28T13:22:38.546Z,96833.00
2022-10-28T13:25:45.491Z,96830.88
2022-10-28T13:28:13.934Z,96831.22
2022-10-28T13:30:51.660Z,96831.31
2022-10-28T13:33:21.767Z,96828.00
2022-10-28T13:35:48.728Z,96825.09
2022-10-28T13:38:20.871Z,96820.81
2022-10-28T13:40:47.235Z,96829.38
2022-10-28T13:43:20.511Z,96839.50
2022-10-28T13:45:48.942Z,96818.66
2022-10-28T13:48:30.598Z,96825.81
2022-10-28T13:51:09.293Z,96821.06
2022-10-28T13:53:45.033Z,96823.09
2022-10-28T13:56:22.043Z,96829.44
2022-10-28T13:59:03.270Z,96829.19
2022-10-28T14:01:38.710Z,96823.44
2022-10-28T14:04:05.888Z,96823.44
2022-10-28T14:06:33.533Z,96834.41
2022-10-28T14:09:00.052Z,96834.41
2022-10-28T14:11:32.464Z,96831.88
2022-10-28T14:14:03.839Z,96833.09
2022-10-28T14:16:35.313Z,96833.03
2022-10-28T14:19:10.841Z,96836.81
2022-10-28T14:21:48.036Z,96829.31
2022-10-28T14:24:31.700Z,96837.47
2022-10-28T14:27:04.020Z,96833.47
2022-10-28T14:29:30.446Z,96836.25
2022-10-28T14:31:57.078Z,96829.25
2022-10-28T14:34:31.255Z,96836.75
2022-10-28T14:36:57.612Z,96831.06
2022-10-28T14:39:50.219Z,96843.28
2022-10-28T14:42:16.913Z,96836.13
2022-10-28T14:44:55.517Z,96842.88
2022-10-28T14:47:24.894Z,96838.41
2022-10-28T14:49:59.362Z,96840.44
2022-10-28T14:52:26.221Z,96835.63
2022-10-28T14:54:55.563Z,96832.78
2022-10-28T14:57:29.448Z,96832.00
2022-10-28T15:00:02.097Z,96832.16
2022-10-28T15:02:29.628Z,96834.00
2022-10-28T15:05:02.056Z,96837.84
2022-10-28T15:07:30.289Z,96832.78
2022-10-28T15:09:59.351Z,96838.34
2022-10-28T15:12:26.256Z,96830.25
2022-10-28T15:14:53.971Z,96837.84
2022-10-28T15:17:26.347Z,96841.88
2022-10-28T15:19:54.165Z,96838.34
2022-10-28T15:22:24.963Z,96831.75
2022-10-28T15:24:54.154Z,96834.16
2022-10-28T15:27:21.197Z,96826.59
2022-10-28T15:29:48.615Z,96833.56
2022-10-28T15:32:25.167Z,96828.69
2022-10-28T15:34:51.519Z,96824.81
2022-10-28T15:37:19.556Z,96829.75
2022-10-28T15:39:46.596Z,96830.38
2022-10-28T15:42:28.141Z,96831.41
2022-10-28T15:44:56.260Z,96824.19
2022-10-28T15:47:22.700Z,96832.78
2022-10-28T15:50:18.559Z,96830.00
2022-10-28T15:52:45.542Z,96825.97
2022-10-28T15:55:35.839Z,96831.91
2022-10-28T15:58:19.112Z,96835.94
2022-10-28T16:00:53.712Z,96835.94
2022-10-28T16:03:27.448Z,96833.72
2022-10-28T16:05:58.129Z,96836.56
2022-10-28T16:08:25.895Z,96834.56
2022-10-28T16:11:03.259Z,96835.19
2022-10-28T16:13:29.788Z,96841.75
2022-10-28T16:16:02.276Z,96840.38
2022-10-28T16:18:29.779Z,96836.28
2022-10-28T16:20:56.533Z,96835.94
2022-10-28T16:23:24.192Z,96834.72
2022-10-28T16:25:50.564Z,96832.91
2022-10-28T16:28:27.109Z,96829.22
2022-10-28T16:30:54.718Z,96840.03
2022-10-28T16:33:25.007Z,96836.75
2022-10-28T16:35:51.361Z,96834.72
2022-10-28T16:38:18.337Z,96840.84
2022-10-28T16:40:51.474Z,96838.84
2022-10-28T16:43:19.990Z,96837.19
2022-10-28T16:45:47.447Z,96841.50
2022-10-28T16:48:15.241Z,96836.19
2022-10-28T16:50:43.735Z,96844.94
2022-10-28T16:53:14.734Z,96838.84
2022-10-28T16:55:41.416Z,96842.47
2022-10-28T16:58:08.033Z,96847.78
2022-10-28T17:00:34.976Z,96841.88
2022-10-28T17:03:01.571Z,96845.34
2022-10-28T17:05:27.989Z,96838.41
2022-10-28T17:07:56.153Z,96839.22
2022-10-28T17:10:23.138Z,96840.41
2022-10-28T17:12:50.139Z,96850.97
2022-10-28T17:15:16.531Z,96847.69
2022-10-28T17:17:42.896Z,96850.13
2022-10-28T17:20:09.554Z,96850.34
2022-10-28T17:22:35.933Z,96848.91
2022-10-28T17:25:02.299Z,96838.28
2022-10-28T17:27:29.045Z,96859.31
2022-10-28T17:29:55.583Z,96849.69
2022-10-28T17:32:22.080Z,96843.75
2022-10-28T17:34:48.560Z,96844.78
2022-10-28T17:37:14.915Z,96852.50
2022-10-28T17:39:42.376Z,96840.25
2022-10-28T17:42:09.199Z,96841.06
2022-10-28T17:44:35.675Z,96852.28
2022-10-28T17:47:02.503Z,96854.75
2022-10-28T17:49:29.913Z,96853.31
2022-10-28T17:51:56.284Z,96843.00
2022-10-28T17:56:53.957Z,96841.38
2022-10-28T17:59:20.335Z,96842.00
2022-10-28T18:01:46.860Z,96835.50
2022-10-28T18:04:13.387Z,96836.31
2022-10-28T18:06:39.772Z,96830.00
2022-10-28T18:09:09.993Z,96835.09
2022-10-28T18:11:37.447Z,96842.28
2022-10-28T18:14:04.370Z,96844.91
2022-10-28T18:16:30.773Z,96849.38
2022-10-28T18:18:58.327Z,96847.56
2022-10-28T18:21:25.169Z,96849.19
2022-10-28T18:23:52.831Z,96840.59
2022-10-28T18:26:19.554Z,96844.28
2022-10-28T18:28:46.362Z,96841.81
2022-10-28T18:31:14.278Z,96847.94
2022-10-28T18:33:41.416Z,96843.44
2022-10-28T18:36:10.800Z,96837.31
2022-10-28T18:38:37.131Z,96842.63
2022-10-28T18:41:03.598Z,96830.38
2022-10-28T18:43:30.070Z,96829.75
2022-10-28T18:46:00.106Z,96829.94
2022-10-28T18:48:26.572Z,96831.75
2022-10-28T18:50:56.787Z,96836.47
2022-10-28T18:53:23.431Z,96835.63
2022-10-28T18:55:49.869Z,96837.25
2022-10-28T18:58:16.364Z,96840.94
2022-10-28T19:00:42.852Z,96834.00
2022-10-28T19:03:17.807Z,96835.00
2022-10-28T19:05:44.205Z,96833.16
2022-10-28T19:08:10.571Z,96827.88
2022-10-28T19:10:36.981Z,96838.47
2022-10-28T19:13:03.647Z,96834.78
2022-10-28T19:15:30.001Z,96829.50
2022-10-28T19:17:56.756Z,96828.69
2022-10-28T19:20:23.907Z,96826.22
2022-10-28T19:22:50.390Z,96833.56
2022-10-28T19:25:16.888Z,96827.22
2022-10-28T19:27:43.278Z,96824.56
2022-10-28T19:30:12.516Z,96828.25
2022-10-28T19:32:40.066Z,96835.56
2022-10-28T19:35:06.643Z,96841.06
2022-10-28T19:37:33.018Z,96847.34
2022-10-28T19:39:59.402Z,96846.56
2022-10-28T19:42:25.861Z,96843.91
2022-10-28T19:44:52.255Z,96842.88
2022-10-28T19:47:18.684Z,96843.72
2022-10-28T19:49:45.048Z,96844.91
2022-10-28T19:52:11.482Z,96845.91
2022-10-28T19:54:37.838Z,96848.56
2022-10-28T19:57:04.328Z,96844.91
2022-10-28T19:59:30.894Z,96851.88
2022-10-28T20:01:57.342Z,96857.31
2022-10-28T20:04:23.863Z,96852.84
2022-10-28T20:06:50.217Z,96850.19
2022-10-28T20:09:16.590Z,96851.88
2022-10-28T20:11:43.346Z,96851.03
2022-10-28T20:14:11.781Z,96856.72
2022-10-28T20:16:39.409Z,96848.97
2022-10-28T20:19:05.915Z,96847.28
2022-10-28T20:21:37.218Z,96850.78
2022-10-28T20:24:04.862Z,96850.97
2022-10-28T20:26:32.593Z,96852.97
2022-10-28T20:28:59.309Z,96851.50
2022-10-28T20:31:26.563Z,96852.53
2022-10-28T20:33:54.026Z,96846.41
2022-10-28T20:36:24.703Z,96847.22
2022-10-28T20:38:54.789Z,96846.41
2022-10-28T20:41:21.737Z,96847.22
2022-10-28T20:43:49.643Z,96852.53
2022-10-28T20:46:19.832Z,96846.41
2022-10-28T20:48:46.633Z,96841.28
2022-10-28T20:51:13.265Z,96846.97
2022-10-28T20:53:39.629Z,96845.16
2022-10-28T20:56:06.423Z,96838.19
2022-10-28T20:58:34.519Z,96832.88
2022-10-28T21:01:05.772Z,96838.75
2022-10-28T21:03:32.513Z,96831.78
2022-10-28T21:05:59.053Z,96839.59
2022-10-28T21:08:25.440Z,96843.41
2022-10-28T21:10:51.858Z,96843.81
2022-10-28T21:13:18.294Z,96826.63
2022-10-28T21:15:45.673Z,96832.09
2022-10-28T21:18:12.424Z,96832.19
2022-10-28T21:20:39.126Z,96831.66
2022-10-28T21:23:06.216Z,96836.06
2022-10-28T21:25:32.970Z,96833.88
2022-10-28T21:27:59.986Z,96844.38
2022-10-28T21:30:27.105Z,96834.53
2022-10-28T21:32:53.887Z,96835.06
2022-10-28T21:35:20.807Z,96841.75
2022-10-28T21:37:47.216Z,96839.28
2022-10-28T21:40:13.881Z,96830.72
2022-10-28T21:42:40.259Z,96833.09
2022-10-28T21:45:07.718Z,96835.91
2022-10-28T21:47:34.466Z,96836.09
2022-10-28T21:50:00.857Z,96832.16
2022-10-28T21:52:27.212Z,96837.44
2022-10-28T21:54:53.564Z,96829.69
2022-10-28T21:57:19.995Z,96839.47
2022-10-28T21:59:49.497Z,96837.81
2022-10-28T22:02:15.972Z,96847.41
2022-10-28T22:04:42.520Z,96842.47
2022-10-28T22:07:08.943Z,96836.53
2022-10-28T22:09:37.448Z,96837.38
2022-10-28T22:12:04.246Z,96837.38
2022-10-28T22:14:30.615Z,96839.81
2022-10-28T22:16:56.981Z,96836.34
2022-10-28T22:19:23.422Z,96835.56
2022-10-28T22:21:49.791Z,96835.09
2022-10-28T22:24:16.161Z,96835.09
2022-10-28T22:26:42.533Z,96834.06
2022-10-28T22:29:08.956Z,96839.38
2022-10-28T22:31:35.388Z,96838.19
2022-10-28T22:34:01.942Z,96832.06
2022-10-28T22:36:29.667Z,96838.19
2022-10-28T22:38:56.170Z,96835.69
2022-10-28T22:41:26.694Z,96838.19
2022-10-28T22:43:59.922Z,96827.59
2022-10-28T22:46:27.829Z,96833.72
2022-10-28T22:48:54.231Z,96824.78
2022-10-28T22:51:20.706Z,96823.94
2022-10-28T22:53:47.428Z,96823.56
2022-10-28T22:56:15.529Z,96828.69
2022-10-28T22:58:41.913Z,96829.34
2022-10-28T23:01:09.814Z,96829.34
2022-10-28T23:03:37.572Z,96829.78
2022-10-28T23:06:04.404Z,96837.53
2022-10-28T23:08:30.998Z,96831.25
2022-10-28T23:10:57.388Z,96830.06
2022-10-28T23:13:23.811Z,96828.25
2022-10-28T23:15:50.310Z,96829.03
2022-10-28T23:18:16.691Z,96823.13
2022-10-28T23:20:43.088Z,96819.28
2022-10-28T23:23:09.444Z,96822.56
2022-10-28T23:25:35.817Z,96819.28
2022-10-28T23:28:04.827Z,96825.78
2022-10-28T23:30:31.585Z,96824.94
2022-10-28T23:32:58.257Z,96822.94
2022-10-28T23:35:25.126Z,96815.66
2022-10-28T23:37:51.506Z,96820.94
2022-10-28T23:40:17.875Z,96819.28
2022-10-28T23:42:44.245Z,96817.66
2022-10-28T23:45:10.694Z,96820.31
2022-10-28T23:47:37.068Z,96820.13
2022-10-28T23:50:03.684Z,96820.31
2022-10-28T23:52:30.062Z,96816.81
2022-10-28T23:54:56.751Z,96811.72
2022-10-28T23:57:23.160Z,96822.03
2022-10-28T23:59:49.530Z,96816.94
